• Join FlightAware (Why Join?)
  • Login
  • US Flag 
10:31PM EDT


 

Airport Tracker/Info


-or-


 

Live Flight TrackerFlight Track Log ✈ N588AC ✈ 23-Jun-2013 ✈ KCRE - KMRN

Flight Track Log - Related Links

Times and Time Zones

All times are in EDT time to prevent confusion due to time zone crossing. See the N588AC flight status page for this flight to view local times or setup timezone preferences in your user account.

Time Position Orientation Groundspeed Altitude Reporting Facility
EDT Latitude Longitude Course Direction KTS MPH feet Rate Location/Type
01:17PM 33.7928 -78.8542 316° Northwest 177 204 6,500  Level Jacksonville Center
01:18PM 33.8439 -78.8219 28° Northeast 147 169 8,900 1,740 Climbing Jacksonville Center
01:19PM 33.9056 -78.7964 19° North 174 200 10,000 1,860 Climbing Jacksonville Center
01:20PM 33.9597 -78.8567 317° Northwest 208 239 12,700 2,280 Climbing Jacksonville Center
01:21PM 34.1403 -79.0769 317° Northwest  Level FlightAware Approximate
01:21PM 34.0089 -78.8969 326° Northwest 233 268 14,600  Level Jacksonville Center
01:22PM 34.1958 -79.1404 317° Northwest  Level FlightAware Approximate
01:22PM 34.0653 -78.9669 314° West 249 287 16,400  Level Jacksonville Center
01:23PM 34.2512 -79.2042 316° Northwest  Level FlightAware Approximate
01:23PM 34.1258 -79.0369 316° Northwest 279 321 17,000  Level Jacksonville Center
01:24PM 34.1972 -79.1167 317° Northwest 317 365 16,900 300 Descending Jacksonville Center
01:25PM 34.2683 -79.1939 318° Northwest 334 384 17,600 960 Climbing Jacksonville Center
01:26PM 34.3353 -79.2692 317° Northwest 339 390 18,900 1,380 Climbing Jacksonville Center
01:27PM 34.3978 -79.3419 316° Northwest 333 383 20,400 1,500 Climbing Jacksonville Center
01:28PM 34.4494 -79.3947 320° Northwest 323 372 21,800 1,380 Climbing Washington Center
01:29PM 34.5178 -79.4711 317° Northwest 323 372 23,000 540 Climbing Washington Center
01:30PM 34.5883 -79.5450 319° Northwest 323 372 23,000  Level Washington Center
01:31PM 34.6892 -79.5903 340° North 350 403 23,000  Level Washington Center
01:32PM 34.7836 -79.6356 339° North 360 414 23,000 540 Level Washington Center
01:33PM 34.8844 -79.6811 340° North 372 428 24,200 1,320 Climbing Washington Center
01:35PM 35.0550 -79.7533 341° North 364 419 26,900 960 Climbing Atlanta Center
01:36PM 35.1483 -79.7967 339° North 353 406 27,000  Climbing Atlanta Center
01:37PM 35.2442 -79.8478 336° Northwest 359 413 27,000  Level Atlanta Center
01:38PM 35.3139 -79.9411 312° West 371 427 27,000  Level Atlanta Center
01:39PM 35.3492 -80.0589 290° West 360 414 27,000  Level Atlanta Center
01:40PM 35.3883 -80.1767 292° West 368 423 27,000 -300 Level Atlanta Center
01:41PM 35.4275 -80.2922 293° West 368 423 26,500 -1,020 Descending Atlanta Center
01:42PM 35.4686 -80.4128 293° West 374 430 25,000 -1,500 Descending Atlanta Center
01:43PM 35.5053 -80.5308 291° West 374 430 23,500 -1,500 Descending Atlanta Center
01:44PM 35.5425 -80.6594 290° West 367 422 22,000 -1,800 Descending Atlanta Center
01:45PM 35.5769 -80.7756 290° West 362 417 19,900 -2,100 Descending Atlanta Center
01:46PM 35.6086 -80.8789 291° West 350 403 17,900 -2,220 Descending Atlanta Center
01:47PM 35.6386 -80.9828 290° West 339 390 15,500 -2,400 Descending Atlanta Center
01:48PM 35.6703 -81.0836 291° West 333 383 13,200 -2,220 Descending Atlanta Center
01:49PM 35.6997 -81.1900 289° West 326 375 11,100 -1,440 Descending Atlanta Center
01:50PM 35.7269 -81.2836 290° West 311 358 10,400 -1,320 Descending Atlanta Center
01:51PM 35.7542 -81.3800 289° West 301 346 8,500 -2,280 Descending Atlanta Center
01:52PM 35.7767 -81.4639 288° West 282 325 5,900 -2,280 Descending Atlanta Center
01:53PM 35.7969 -81.5375 289° West 262 302 4,000 -1,920 Descending Atlanta Center